createdAt,value
2023-05-03T00:00:33.113Z,8.67
2023-05-03T00:01:33.113Z,8.63
2023-05-03T00:02:33.189Z,8.63
2023-05-03T00:03:33.094Z,8.60
2023-05-03T00:04:33.092Z,8.55
2023-05-03T00:05:33.090Z,8.63
2023-05-03T00:06:33.045Z,8.63
2023-05-03T00:07:33.042Z,8.53
2023-05-03T00:08:33.030Z,8.49
2023-05-03T00:09:33.052Z,8.46
2023-05-03T00:10:33.036Z,8.46
2023-05-03T00:11:33.010Z,8.44
2023-05-03T00:12:33.084Z,8.34
2023-05-03T00:13:33.001Z,8.36
2023-05-03T00:14:32.974Z,8.38
2023-05-03T00:15:32.992Z,8.30
2023-05-03T00:16:33.013Z,8.28
2023-05-03T00:17:32.975Z,8.24
2023-05-03T00:18:32.911Z,8.20
2023-05-03T00:19:32.899Z,8.20
2023-05-03T00:20:32.878Z,8.30
2023-05-03T00:21:32.894Z,8.16
2023-05-03T00:22:32.905Z,8.23
2023-05-03T00:23:32.905Z,8.26
2023-05-03T00:24:32.885Z,8.24
2023-05-03T00:25:32.846Z,8.24
2023-05-03T00:26:32.823Z,8.16
2023-05-03T00:27:32.817Z,8.20
2023-05-03T00:28:33.008Z,8.20
2023-05-03T00:29:32.793Z,8.26
2023-05-03T00:30:32.773Z,8.26
2023-05-03T00:31:32.791Z,8.24
2023-05-03T00:32:32.804Z,8.08
2023-05-03T00:33:32.769Z,8.06
2023-05-03T00:34:32.728Z,8.13
2023-05-03T00:35:32.730Z,8.13
2023-05-03T00:36:33.553Z,8.00
2023-05-03T00:37:32.708Z,8.05
2023-05-03T00:38:32.699Z,8.09
2023-05-03T00:39:32.666Z,8.00
2023-05-03T00:40:32.899Z,7.93
2023-05-03T00:41:32.657Z,7.94
2023-05-03T00:42:32.648Z,7.95
2023-05-03T00:43:32.843Z,7.91
2023-05-03T00:44:32.668Z,7.91
2023-05-03T00:45:32.815Z,7.75
2023-05-03T00:46:32.613Z,7.83
2023-05-03T00:47:32.636Z,7.76
2023-05-03T00:48:32.579Z,7.79
2023-05-03T00:49:32.590Z,7.66
2023-05-03T00:50:32.559Z,7.69
2023-05-03T00:51:32.559Z,7.56
2023-05-03T00:52:32.554Z,7.53
2023-05-03T00:53:32.516Z,7.53
2023-05-03T00:54:32.517Z,7.43
2023-05-03T00:55:32.497Z,7.40
2023-05-03T00:56:40.678Z,7.36
2023-05-03T00:57:32.478Z,7.35
2023-05-03T00:58:32.507Z,7.35
2023-05-03T00:59:32.479Z,7.33
2023-05-03T01:00:32.469Z,7.32
2023-05-03T01:01:32.499Z,7.33
2023-05-03T01:02:32.462Z,7.25
2023-05-03T01:03:32.458Z,7.23
2023-05-03T01:04:32.398Z,7.21
2023-05-03T01:05:32.368Z,7.07
2023-05-03T01:06:32.420Z,7.17
2023-05-03T01:07:32.377Z,7.14
2023-05-03T01:08:32.361Z,7.02
2023-05-03T01:09:32.384Z,7.03
2023-05-03T01:10:32.334Z,7.00
2023-05-03T01:11:32.333Z,6.95
2023-05-03T01:12:32.288Z,6.96
2023-05-03T01:13:32.500Z,6.99
2023-05-03T01:14:32.277Z,6.93
2023-05-03T01:15:32.267Z,6.96
2023-05-03T01:16:32.395Z,6.93
2023-05-03T01:17:32.302Z,6.93
2023-05-03T01:18:32.231Z,6.93
2023-05-03T01:19:32.218Z,6.97
2023-05-03T01:20:32.244Z,6.85
2023-05-03T01:21:32.190Z,6.84
2023-05-03T01:22:32.175Z,6.88
2023-05-03T01:23:32.189Z,6.88
2023-05-03T01:24:32.204Z,6.79
2023-05-03T01:25:32.136Z,6.78
2023-05-03T01:26:32.140Z,6.74
2023-05-03T01:27:32.112Z,6.74
2023-05-03T01:28:32.108Z,6.75
2023-05-03T01:29:32.096Z,6.66
2023-05-03T01:30:32.084Z,6.64
2023-05-03T01:31:32.112Z,6.59
2023-05-03T01:32:32.133Z,6.52
2023-05-03T01:33:32.046Z,6.46
2023-05-03T01:34:32.029Z,6.51
2023-05-03T01:35:32.030Z,6.52
2023-05-03T01:36:32.009Z,6.44
2023-05-03T01:37:32.000Z,6.46
2023-05-03T01:38:32.005Z,6.42
2023-05-03T01:39:31.975Z,6.42
2023-05-03T01:40:31.977Z,6.31
2023-05-03T01:41:31.960Z,6.31
2023-05-03T01:42:31.948Z,6.33
2023-05-03T01:43:31.931Z,6.24
2023-05-03T01:44:31.929Z,6.30
2023-05-03T01:45:31.946Z,6.22
2023-05-03T01:46:32.094Z,6.22
2023-05-03T01:47:31.949Z,6.22
2023-05-03T01:48:31.903Z,6.27
2023-05-03T01:49:31.840Z,6.22
2023-05-03T01:50:31.848Z,6.24
2023-05-03T01:51:31.832Z,6.19
2023-05-03T01:52:31.826Z,6.26
2023-05-03T01:53:31.807Z,6.24
2023-05-03T01:54:31.807Z,6.17
2023-05-03T01:55:31.800Z,6.19
2023-05-03T01:56:31.768Z,6.27
2023-05-03T01:57:31.762Z,6.27
2023-05-03T01:58:31.733Z,6.19
2023-05-03T01:59:31.772Z,6.19
2023-05-03T02:00:31.732Z,6.22
2023-05-03T02:01:31.767Z,6.20
2023-05-03T02:02:31.741Z,6.17
2023-05-03T02:03:31.899Z,6.16
2023-05-03T02:04:31.728Z,6.22
2023-05-03T02:05:31.661Z,6.16
2023-05-03T02:06:31.700Z,6.14
2023-05-03T02:07:31.832Z,6.07
2023-05-03T02:08:31.642Z,6.04
2023-05-03T02:09:31.615Z,6.07
2023-05-03T02:10:31.632Z,6.07
2023-05-03T02:11:31.596Z,6.07
2023-05-03T02:12:31.566Z,6.07
2023-05-03T02:13:31.578Z,5.98
2023-05-03T02:14:31.537Z,5.87
2023-05-03T02:15:31.527Z,5.86
2023-05-03T02:16:31.532Z,5.80
2023-05-03T02:17:31.527Z,5.72
2023-05-03T02:18:31.534Z,5.69
2023-05-03T02:19:31.485Z,5.68
2023-05-03T02:20:31.489Z,5.62
2023-05-03T02:21:31.447Z,5.59
2023-05-03T02:22:31.470Z,5.57
2023-05-03T02:23:31.463Z,5.50
2023-05-03T02:24:31.423Z,5.47
2023-05-03T02:25:31.420Z,5.48
2023-05-03T02:26:31.393Z,5.43
2023-05-03T02:27:31.380Z,5.44
2023-05-03T02:28:31.361Z,5.46
2023-05-03T02:29:31.345Z,5.41
2023-05-03T02:30:31.366Z,5.43
2023-05-03T02:31:31.464Z,5.44
2023-05-03T02:32:31.385Z,5.47
2023-05-03T02:33:31.297Z,5.43
2023-05-03T02:34:31.306Z,5.41
2023-05-03T02:35:31.300Z,5.47
2023-05-03T02:36:31.296Z,5.46
2023-05-03T02:37:31.263Z,5.48
2023-05-03T02:38:31.233Z,5.50
2023-05-03T02:39:31.238Z,5.36
2023-05-03T02:40:31.228Z,5.33
2023-05-03T02:41:31.200Z,5.32
2023-05-03T02:42:31.192Z,5.39
2023-05-03T02:43:31.182Z,5.38
2023-05-03T02:44:32.427Z,5.46
2023-05-03T02:45:31.170Z,5.47
2023-05-03T02:46:31.208Z,5.35
2023-05-03T02:47:31.143Z,5.33
2023-05-03T02:48:31.115Z,5.48
2023-05-03T02:49:31.100Z,5.38
2023-05-03T02:50:31.081Z,5.44
2023-05-03T02:51:31.104Z,5.43
2023-05-03T02:52:31.083Z,5.51
2023-05-03T02:53:31.049Z,5.46
2023-05-03T02:54:31.232Z,5.51
2023-05-03T02:55:31.036Z,5.46
2023-05-03T02:56:31.011Z,5.41
2023-05-03T02:57:31.004Z,5.50
2023-05-03T02:58:30.982Z,5.50
2023-05-03T02:59:30.990Z,5.47
2023-05-03T03:00:30.975Z,5.56
2023-05-03T03:01:30.989Z,5.56
2023-05-03T03:02:30.998Z,5.53
2023-05-03T03:03:30.990Z,5.48
2023-05-03T03:04:30.933Z,5.43
2023-05-03T03:05:30.916Z,5.44
2023-05-03T03:06:30.942Z,5.32
2023-05-03T03:07:30.864Z,5.38
2023-05-03T03:08:30.872Z,5.35
2023-05-03T03:09:30.839Z,5.36
2023-05-03T03:10:30.817Z,5.38
2023-05-03T03:11:30.823Z,5.39
2023-05-03T03:12:30.809Z,5.32
2023-05-03T03:13:30.792Z,5.33
2023-05-03T03:14:30.766Z,5.33
2023-05-03T03:15:30.759Z,5.33
2023-05-03T03:16:30.841Z,5.38
2023-05-03T03:17:30.761Z,5.43
2023-05-03T03:18:30.723Z,5.38
2023-05-03T03:19:30.921Z,5.43
2023-05-03T03:20:30.707Z,5.50
2023-05-03T03:21:30.696Z,5.43
2023-05-03T03:22:30.674Z,5.41
2023-05-03T03:23:30.670Z,5.47
2023-05-03T03:24:30.690Z,5.56
2023-05-03T03:25:30.645Z,5.48
2023-05-03T03:26:30.624Z,5.48
2023-05-03T03:27:30.599Z,5.54
2023-05-03T03:28:30.629Z,5.51
2023-05-03T03:29:30.606Z,5.48
2023-05-03T03:30:30.582Z,5.56
2023-05-03T03:31:30.570Z,5.56
2023-05-03T03:32:30.551Z,5.57
2023-05-03T03:33:30.539Z,5.51
2023-05-03T03:34:30.526Z,5.53
2023-05-03T03:35:30.526Z,5.47
2023-05-03T03:36:30.517Z,5.53
2023-05-03T03:37:30.477Z,5.50
2023-05-03T03:38:30.493Z,5.51
2023-05-03T03:39:30.470Z,5.51
2023-05-03T03:40:30.458Z,5.47
2023-05-03T03:41:30.430Z,5.48
2023-05-03T03:42:30.447Z,5.39
2023-05-03T03:43:30.413Z,5.44
2023-05-03T03:44:30.617Z,5.47
2023-05-03T03:45:30.383Z,5.41
2023-05-03T03:46:30.385Z,5.50
2023-05-03T03:47:30.414Z,5.41
2023-05-03T03:48:30.373Z,5.46
2023-05-03T03:49:30.319Z,5.41
2023-05-03T03:50:30.317Z,5.46
2023-05-03T03:51:30.316Z,5.44
2023-05-03T03:52:30.302Z,5.47
2023-05-03T03:53:30.268Z,5.56
2023-05-03T03:54:30.489Z,5.50
2023-05-03T03:55:30.267Z,5.46
2023-05-03T03:56:30.263Z,5.48
2023-05-03T03:57:30.331Z,5.50
2023-05-03T03:58:30.217Z,5.56
2023-05-03T03:59:30.213Z,5.61
2023-05-03T04:00:30.227Z,5.62
2023-05-03T04:01:30.188Z,5.54
2023-05-03T04:02:30.280Z,5.48
2023-05-03T04:03:30.303Z,5.54
2023-05-03T04:04:30.165Z,5.54
2023-05-03T04:05:30.127Z,5.62
2023-05-03T04:06:30.137Z,5.64
2023-05-03T04:07:30.109Z,5.57
2023-05-03T04:08:30.104Z,5.54
2023-05-03T04:09:30.083Z,5.64
2023-05-03T04:10:30.089Z,5.54
2023-05-03T04:11:30.068Z,5.64
2023-05-03T04:12:30.075Z,5.65
2023-05-03T04:13:30.062Z,5.72
2023-05-03T04:14:30.041Z,5.73
2023-05-03T04:15:30.035Z,5.76
2023-05-03T04:16:30.047Z,5.89
2023-05-03T04:17:29.994Z,5.99
2023-05-03T04:18:29.970Z,6.12
2023-05-03T04:19:29.944Z,6.19
2023-05-03T04:20:29.963Z,6.31
2023-05-03T04:21:29.976Z,6.35
2023-05-03T04:22:29.919Z,6.44
2023-05-03T04:23:29.891Z,6.41
2023-05-03T04:24:29.903Z,6.42
2023-05-03T04:25:29.907Z,6.46
2023-05-03T04:26:32.102Z,6.46
2023-05-03T04:27:29.840Z,6.56
2023-05-03T04:28:29.877Z,6.56
2023-05-03T04:29:29.840Z,6.49
2023-05-03T04:30:29.828Z,6.54
2023-05-03T04:31:29.847Z,6.52
2023-05-03T04:32:29.817Z,6.54
2023-05-03T04:33:29.805Z,6.54
2023-05-03T04:34:29.758Z,6.54
2023-05-03T04:35:29.760Z,6.46
2023-05-03T04:36:29.802Z,6.52
2023-05-03T04:37:29.754Z,6.54
2023-05-03T04:38:29.766Z,6.52
2023-05-03T04:39:29.697Z,6.49
2023-05-03T04:40:29.698Z,6.51
2023-05-03T04:41:29.692Z,6.49
2023-05-03T04:42:29.692Z,6.51
2023-05-03T04:43:29.649Z,6.46
2023-05-03T04:44:29.656Z,6.52
2023-05-03T04:45:29.755Z,6.52
2023-05-03T04:46:29.693Z,6.56
2023-05-03T04:47:29.840Z,6.57
2023-05-03T04:48:29.621Z,6.52
2023-05-03T04:49:29.584Z,6.52
2023-05-03T04:50:29.582Z,6.57
2023-05-03T04:51:29.605Z,6.52
2023-05-03T04:52:29.580Z,6.48
2023-05-03T04:53:29.600Z,6.44
2023-05-03T04:54:29.523Z,6.54
2023-05-03T04:55:29.501Z,6.52
2023-05-03T04:56:29.491Z,6.45
2023-05-03T04:57:29.471Z,6.45
2023-05-03T04:58:29.510Z,6.42
2023-05-03T04:59:29.668Z,6.63
2023-05-03T05:00:29.458Z,6.59
2023-05-03T05:01:29.470Z,6.52
2023-05-03T05:02:29.510Z,6.70
2023-05-03T05:03:29.501Z,6.74
2023-05-03T05:04:29.375Z,6.79
2023-05-03T05:05:29.386Z,6.99
2023-05-03T05:06:29.389Z,6.93
2023-05-03T05:07:29.372Z,7.14
2023-05-03T05:08:29.368Z,7.29
2023-05-03T05:09:29.339Z,7.45
2023-05-03T05:10:29.339Z,7.63
2023-05-03T05:11:29.311Z,7.76
2023-05-03T05:12:29.296Z,7.80
2023-05-03T05:13:29.295Z,7.93
2023-05-03T05:14:29.288Z,8.01
2023-05-03T05:15:29.259Z,8.15
2023-05-03T05:16:29.486Z,8.24
2023-05-03T05:17:29.309Z,8.31
2023-05-03T05:18:29.228Z,8.41
2023-05-03T05:19:29.217Z,8.46
2023-05-03T05:20:29.185Z,8.48
2023-05-03T05:21:29.217Z,8.42
2023-05-03T05:22:29.193Z,8.64
2023-05-03T05:23:29.216Z,8.70
2023-05-03T05:24:29.166Z,8.78
2023-05-03T05:25:29.190Z,8.76
2023-05-03T05:26:29.182Z,8.76
2023-05-03T05:27:29.130Z,8.78
2023-05-03T05:28:29.117Z,8.73
2023-05-03T05:29:29.104Z,8.76
2023-05-03T05:30:29.089Z,8.67
2023-05-03T05:31:29.112Z,8.63
2023-05-03T05:32:29.244Z,8.71
2023-05-03T05:33:29.111Z,8.88
2023-05-03T05:34:32.268Z,8.92
2023-05-03T05:35:29.062Z,8.89
2023-05-03T05:36:29.001Z,9.10
2023-05-03T05:37:29.042Z,9.10
2023-05-03T05:38:28.998Z,9.10
2023-05-03T05:39:29.257Z,9.18
2023-05-03T05:40:28.971Z,9.14
2023-05-03T05:41:28.961Z,9.16
2023-05-03T05:42:28.976Z,9.28
2023-05-03T05:43:28.960Z,9.25
2023-05-03T05:44:28.973Z,9.32
2023-05-03T05:45:28.973Z,9.40
2023-05-03T05:46:28.995Z,9.32
2023-05-03T05:47:28.925Z,9.36
2023-05-03T05:48:28.938Z,9.39
2023-05-03T05:49:28.927Z,9.43
2023-05-03T05:50:28.886Z,9.47
2023-05-03T05:51:28.859Z,9.44
2023-05-03T05:52:28.894Z,9.50
2023-05-03T05:53:28.873Z,9.51
2023-05-03T05:54:30.345Z,9.48
2023-05-03T05:55:28.806Z,9.23
2023-05-03T05:56:28.787Z,9.21
2023-05-03T05:57:28.815Z,9.18
2023-05-03T05:58:29.002Z,8.84
2023-05-03T05:59:28.799Z,8.91
2023-05-03T06:00:28.803Z,8.97
2023-05-03T06:01:28.770Z,9.04
2023-05-03T06:02:29.139Z,9.16
2023-05-03T06:03:28.779Z,9.08
2023-05-03T06:04:28.740Z,9.21
2023-05-03T06:05:28.788Z,9.44
2023-05-03T06:06:28.751Z,9.55
2023-05-03T06:07:28.702Z,9.59
2023-05-03T06:08:28.744Z,9.47
2023-05-03T06:09:28.671Z,9.21
2023-05-03T06:10:28.714Z,9.22
2023-05-03T06:11:28.651Z,9.21
2023-05-03T06:12:28.624Z,9.34
2023-05-03T06:13:28.643Z,9.36
2023-05-03T06:14:28.629Z,9.39
2023-05-03T06:15:28.626Z,9.55
2023-05-03T06:16:29.025Z,9.61
2023-05-03T06:17:28.658Z,9.55
2023-05-03T06:18:28.792Z,9.32
2023-05-03T06:19:28.590Z,9.37
2023-05-03T06:20:28.848Z,9.39
2023-05-03T06:21:28.535Z,9.48
2023-05-03T06:22:28.535Z,9.62
2023-05-03T06:23:28.581Z,9.44
2023-05-03T06:24:28.516Z,9.47
2023-05-03T06:25:28.497Z,9.50
2023-05-03T06:26:28.555Z,9.61
2023-05-03T06:27:28.529Z,9.41
2023-05-03T06:28:28.707Z,9.47
2023-05-03T06:29:28.485Z,9.48
2023-05-03T06:30:28.656Z,9.47
2023-05-03T06:31:28.539Z,9.61
2023-05-03T06:32:28.494Z,9.36
2023-05-03T06:33:28.425Z,9.41
2023-05-03T06:34:28.433Z,9.44
2023-05-03T06:35:28.405Z,9.10
2023-05-03T06:36:28.421Z,9.21
2023-05-03T06:37:28.404Z,9.06
2023-05-03T06:38:28.402Z,9.18
2023-05-03T06:39:28.397Z,9.36
2023-05-03T06:40:28.350Z,9.37
2023-05-03T06:41:28.363Z,9.22
2023-05-03T06:42:28.349Z,9.22
2023-05-03T06:43:28.353Z,9.21
2023-05-03T06:44:28.301Z,9.41
2023-05-03T06:45:28.312Z,9.41
2023-05-03T06:46:28.352Z,9.41
2023-05-03T06:47:28.294Z,9.48
2023-05-03T06:48:28.386Z,9.43
2023-05-03T06:49:28.253Z,9.61
2023-05-03T06:50:28.319Z,9.59
2023-05-03T06:51:28.249Z,9.59
2023-05-03T06:52:28.233Z,9.77
2023-05-03T06:53:28.206Z,9.61
2023-05-03T06:54:28.205Z,9.73
2023-05-03T06:55:28.390Z,9.73
2023-05-03T06:56:28.204Z,9.98
2023-05-03T06:57:28.980Z,9.79
2023-05-03T06:58:28.185Z,9.74
2023-05-03T06:59:28.183Z,9.86
2023-05-03T07:00:28.173Z,9.97
2023-05-03T07:01:28.196Z,10.02
2023-05-03T07:02:28.176Z,9.98
2023-05-03T07:03:28.285Z,10.12
2023-05-03T07:04:28.103Z,10.22
2023-05-03T07:05:28.095Z,10.16
2023-05-03T07:06:28.089Z,10.38
2023-05-03T07:07:28.121Z,10.49
2023-05-03T07:08:31.164Z,10.35
2023-05-03T07:09:42.068Z,10.12
2023-05-03T07:10:29.116Z,10.07
2023-05-03T07:11:28.055Z,10.15
2023-05-03T07:12:28.035Z,10.51
2023-05-03T07:13:28.236Z,10.59
2023-05-03T07:14:28.210Z,10.51
2023-05-03T07:15:28.041Z,10.42
2023-05-03T07:16:28.115Z,10.57
2023-05-03T07:17:28.027Z,10.51
2023-05-03T07:18:28.074Z,10.44
2023-05-03T07:19:27.989Z,10.48
2023-05-03T07:20:27.960Z,10.75
2023-05-03T07:21:28.017Z,10.76
2023-05-03T07:22:27.930Z,10.67
2023-05-03T07:23:27.910Z,10.68
2023-05-03T07:24:27.996Z,10.74
2023-05-03T07:25:27.907Z,10.82
2023-05-03T07:26:27.870Z,10.82
2023-05-03T07:27:27.854Z,10.93
2023-05-03T07:28:27.864Z,10.84
2023-05-03T07:29:27.890Z,10.78
2023-05-03T07:30:27.849Z,10.71
2023-05-03T07:31:27.820Z,10.63
2023-05-03T07:32:28.021Z,10.68
2023-05-03T07:33:27.915Z,10.84
2023-05-03T07:34:27.887Z,10.89
2023-05-03T07:35:27.783Z,11.17
2023-05-03T07:36:28.046Z,11.10
2023-05-03T07:37:27.771Z,11.02
2023-05-03T07:38:28.214Z,10.99
2023-05-03T07:39:27.762Z,11.43
2023-05-03T07:40:27.800Z,11.70
2023-05-03T07:41:27.762Z,12.17
2023-05-03T07:42:27.722Z,11.94
2023-05-03T07:43:27.778Z,11.94
2023-05-03T07:44:27.693Z,11.88
2023-05-03T07:45:27.771Z,12.03
2023-05-03T07:46:27.739Z,12.02
2023-05-03T07:47:27.754Z,11.29
2023-05-03T07:48:27.701Z,11.02
2023-05-03T07:49:27.684Z,11.26
2023-05-03T07:50:27.694Z,11.47
2023-05-03T07:51:27.766Z,11.88
2023-05-03T07:52:27.645Z,12.10
2023-05-03T07:53:27.697Z,12.24
2023-05-03T07:54:27.655Z,12.15
2023-05-03T07:55:27.641Z,12.07
2023-05-03T07:56:27.622Z,11.97
2023-05-03T07:57:27.676Z,12.29
2023-05-03T07:58:38.873Z,12.24
2023-05-03T07:59:27.612Z,11.84
2023-05-03T08:00:27.569Z,11.81
2023-05-03T08:01:27.611Z,11.83
2023-05-03T08:02:27.690Z,12.27
2023-05-03T08:03:27.785Z,12.64
2023-05-03T08:04:27.832Z,12.54
2023-05-03T08:05:27.608Z,12.61
2023-05-03T08:06:27.586Z,12.70
2023-05-03T08:07:27.527Z,12.90
2023-05-03T08:08:27.521Z,13.05
2023-05-03T08:09:27.498Z,13.09
2023-05-03T08:10:27.467Z,13.42
2023-05-03T08:11:27.472Z,13.50
2023-05-03T08:12:27.530Z,13.08
2023-05-03T08:13:27.867Z,12.60
2023-05-03T08:14:27.460Z,12.54
2023-05-03T08:15:27.507Z,12.39
2023-05-03T08:16:27.636Z,12.35
2023-05-03T08:17:27.453Z,12.25
2023-05-03T08:18:27.437Z,12.40
2023-05-03T08:19:27.408Z,12.54
2023-05-03T08:20:27.448Z,12.72
2023-05-03T08:21:27.425Z,13.44
2023-05-03T08:22:27.454Z,13.85
2023-05-03T08:23:27.494Z,14.33
2023-05-03T08:24:27.381Z,14.55
2023-05-03T08:25:27.405Z,14.62
2023-05-03T08:26:27.464Z,14.60
2023-05-03T08:27:27.469Z,13.83
2023-05-03T08:28:27.393Z,13.78
2023-05-03T08:29:27.872Z,13.30
2023-05-03T08:31:27.393Z,12.57
2023-05-03T08:32:27.563Z,12.73
2023-05-03T08:33:27.359Z,12.43
2023-05-03T08:34:27.334Z,12.61
2023-05-03T08:35:27.309Z,12.85
2023-05-03T08:36:27.426Z,13.09
2023-05-03T08:37:27.397Z,13.65
2023-05-03T08:38:27.326Z,14.14
2023-05-03T08:39:27.318Z,14.60
2023-05-03T08:40:27.293Z,13.89
2023-05-03T08:41:28.545Z,13.53
2023-05-03T08:42:27.247Z,13.53
2023-05-03T08:43:27.357Z,13.86
2023-05-03T08:44:27.396Z,13.90
2023-05-03T08:45:27.232Z,14.10
2023-05-03T08:46:27.317Z,13.95
2023-05-03T08:47:27.238Z,13.41
2023-05-03T08:48:28.666Z,12.91
2023-05-03T08:49:27.225Z,12.76
2023-05-03T08:50:27.226Z,12.64
2023-05-03T08:51:27.225Z,12.90
2023-05-03T08:52:27.205Z,13.31
2023-05-03T08:53:27.205Z,13.68
2023-05-03T08:54:27.180Z,13.85
2023-05-03T08:55:27.158Z,13.89
2023-05-03T08:56:27.168Z,14.04
2023-05-03T08:57:27.178Z,14.20
2023-05-03T08:58:27.199Z,14.11
2023-05-03T08:59:27.118Z,13.97
2023-05-03T09:00:27.190Z,13.44
2023-05-03T09:01:27.166Z,13.30
2023-05-03T09:02:27.276Z,13.12
2023-05-03T09:03:27.205Z,13.08
2023-05-03T09:04:27.327Z,12.75
2023-05-03T09:05:27.293Z,12.68
2023-05-03T09:06:27.233Z,12.75
2023-05-03T09:08:27.054Z,13.08
2023-05-03T09:09:27.095Z,13.46
2023-05-03T09:10:27.042Z,13.68
2023-05-03T09:11:27.134Z,13.54
2023-05-03T09:12:27.044Z,13.25
2023-05-03T09:13:27.052Z,13.52
2023-05-03T09:14:27.027Z,13.62
2023-05-03T09:15:26.994Z,13.78
2023-05-03T09:16:27.081Z,13.78
2023-05-03T09:17:27.081Z,13.72
2023-05-03T09:18:27.065Z,13.60
2023-05-03T09:19:26.993Z,13.90
2023-05-03T09:20:26.974Z,14.45
2023-05-03T09:21:26.976Z,14.84
2023-05-03T09:22:27.081Z,15.52
2023-05-03T09:23:26.974Z,15.36
2023-05-03T09:24:26.980Z,14.96
2023-05-03T09:25:26.934Z,14.70
2023-05-03T09:26:26.987Z,14.44
2023-05-03T09:27:27.004Z,14.29
2023-05-03T09:28:26.924Z,14.69
2023-05-03T09:29:26.932Z,15.43
2023-05-03T09:30:26.906Z,15.83
2023-05-03T09:31:26.937Z,16.35
2023-05-03T09:32:26.956Z,16.57
2023-05-03T09:33:26.857Z,16.49
2023-05-03T09:34:26.911Z,15.98
2023-05-03T09:35:26.847Z,15.33
2023-05-03T09:36:26.899Z,14.86
2023-05-03T09:37:26.824Z,14.45
2023-05-03T09:38:26.861Z,14.26
2023-05-03T09:39:26.868Z,14.25
2023-05-03T09:40:26.841Z,14.25
2023-05-03T09:41:26.817Z,14.48
2023-05-03T09:42:26.832Z,14.78
2023-05-03T09:43:26.783Z,14.41
2023-05-03T09:44:26.797Z,14.00
2023-05-03T09:45:26.755Z,13.92
2023-05-03T09:46:26.820Z,13.92
2023-05-03T09:47:29.183Z,13.78
2023-05-03T09:48:26.773Z,13.93
2023-05-03T09:49:26.795Z,14.23
2023-05-03T09:50:26.785Z,14.25
2023-05-03T09:51:26.742Z,14.23
2023-05-03T09:52:26.738Z,14.50
2023-05-03T09:53:26.702Z,14.81
2023-05-03T09:54:26.706Z,14.55
2023-05-03T09:55:26.693Z,14.43
2023-05-03T09:56:26.728Z,14.25
2023-05-03T09:57:26.695Z,14.22
2023-05-03T09:58:26.715Z,14.28
2023-05-03T09:59:26.696Z,14.51
2023-05-03T10:00:26.696Z,14.99
2023-05-03T10:01:26.688Z,14.85
2023-05-03T10:02:26.664Z,15.07
2023-05-03T10:03:26.733Z,15.51
2023-05-03T10:04:26.860Z,15.58
2023-05-03T10:05:26.638Z,15.35
2023-05-03T10:06:26.781Z,15.19
2023-05-03T10:07:26.626Z,14.91
2023-05-03T10:08:26.608Z,14.86
2023-05-03T10:09:26.589Z,14.79
2023-05-03T10:10:26.616Z,14.99
2023-05-03T10:11:26.617Z,15.46
2023-05-03T10:12:26.592Z,15.65
2023-05-03T10:13:26.594Z,15.55
2023-05-03T10:14:26.576Z,15.21
2023-05-03T10:15:26.577Z,14.84
2023-05-03T10:16:26.696Z,14.58
2023-05-03T10:17:39.292Z,14.65
2023-05-03T10:18:26.570Z,14.94
2023-05-03T10:19:26.656Z,15.00
2023-05-03T10:20:26.545Z,15.39
2023-05-03T10:21:26.927Z,15.61
2023-05-03T10:22:26.521Z,15.59
2023-05-03T10:23:26.522Z,15.43
2023-05-03T10:24:26.513Z,15.33
2023-05-03T10:25:26.495Z,14.99
2023-05-03T10:26:26.496Z,15.15
2023-05-03T10:27:26.467Z,15.40
2023-05-03T10:28:26.475Z,15.82
2023-05-03T10:29:26.538Z,16.12
2023-05-03T10:30:26.466Z,16.41
2023-05-03T10:31:26.491Z,16.74
2023-05-03T10:32:26.479Z,16.76
2023-05-03T10:33:26.541Z,16.36
2023-05-03T10:34:26.434Z,15.33
2023-05-03T10:35:26.435Z,14.59
2023-05-03T10:36:32.786Z,14.48
2023-05-03T10:37:26.402Z,14.53
2023-05-03T10:38:26.491Z,14.44
2023-05-03T10:39:26.391Z,14.53
2023-05-03T10:40:26.400Z,14.62
2023-05-03T10:41:26.383Z,14.72
2023-05-03T10:42:26.392Z,14.89
2023-05-03T10:43:26.382Z,15.19
2023-05-03T10:44:26.378Z,15.29
2023-05-03T10:45:26.436Z,15.33
2023-05-03T10:46:26.385Z,15.18
2023-05-03T10:47:26.428Z,14.99
2023-05-03T10:48:26.328Z,15.00
2023-05-03T10:49:26.364Z,15.02
2023-05-03T10:50:26.377Z,15.03
2023-05-03T10:51:26.322Z,14.59
2023-05-03T10:52:26.322Z,14.55
2023-05-03T10:53:26.370Z,14.55
2023-05-03T10:54:26.277Z,14.50
2023-05-03T10:55:26.374Z,14.23
2023-05-03T10:56:26.299Z,14.47
2023-05-03T10:57:26.262Z,14.77
2023-05-03T10:58:26.241Z,14.51
2023-05-03T10:59:26.306Z,14.43
2023-05-03T11:00:26.251Z,14.44
2023-05-03T11:01:26.241Z,14.45
2023-05-03T11:02:26.212Z,14.58
2023-05-03T11:03:26.417Z,14.22
2023-05-03T11:04:26.257Z,14.28
2023-05-03T11:05:26.212Z,14.43
2023-05-03T11:06:26.207Z,14.62
2023-05-03T11:07:26.166Z,14.63
2023-05-03T11:08:26.181Z,14.62
2023-05-03T11:09:26.212Z,14.70
2023-05-03T11:10:26.194Z,15.00
2023-05-03T11:11:26.174Z,15.22
2023-05-03T11:12:26.162Z,15.29
2023-05-03T11:13:26.347Z,15.57
2023-05-03T11:14:26.136Z,15.31
2023-05-03T11:15:26.378Z,15.35
2023-05-03T11:16:26.332Z,15.35
2023-05-03T11:17:26.179Z,15.18
2023-05-03T11:18:26.151Z,14.94
2023-05-03T11:19:26.193Z,14.85
2023-05-03T11:20:26.130Z,14.92
2023-05-03T11:21:26.101Z,14.96
2023-05-03T11:22:26.077Z,14.70
2023-05-03T11:23:26.098Z,14.65
2023-05-03T11:24:26.082Z,14.58
2023-05-03T11:25:26.024Z,14.60
2023-05-03T11:26:26.306Z,14.86
2023-05-03T11:27:26.016Z,14.81
2023-05-03T11:28:26.057Z,14.72
2023-05-03T11:29:26.024Z,14.62
2023-05-03T11:30:26.025Z,14.82
2023-05-03T11:31:26.076Z,15.06
2023-05-03T11:32:26.006Z,15.19
2023-05-03T11:33:26.161Z,15.19
2023-05-03T11:34:26.022Z,14.97
2023-05-03T11:35:26.552Z,15.04
2023-05-03T11:36:25.955Z,14.94
2023-05-03T11:37:25.959Z,15.03
2023-05-03T11:38:25.969Z,14.82
2023-05-03T11:39:26.174Z,14.86
2023-05-03T11:40:26.037Z,15.00
2023-05-03T11:41:25.965Z,15.03
2023-05-03T11:42:25.990Z,15.04
2023-05-03T11:43:25.903Z,15.00
2023-05-03T11:44:25.909Z,14.91
2023-05-03T11:45:25.895Z,14.58
2023-05-03T11:46:26.009Z,14.60
2023-05-03T11:47:26.081Z,14.62
2023-05-03T11:48:25.928Z,14.68
2023-05-03T11:49:25.873Z,14.72
2023-05-03T11:50:25.841Z,14.99
2023-05-03T11:51:26.225Z,14.82
2023-05-03T11:52:25.848Z,14.63
2023-05-03T11:53:25.887Z,14.70
2023-05-03T11:54:27.473Z,14.62
2023-05-03T11:55:25.840Z,14.45
2023-05-03T11:56:25.867Z,14.53
2023-05-03T11:57:25.783Z,14.53
2023-05-03T11:58:25.849Z,14.47
2023-05-03T11:59:25.989Z,14.47
2023-05-03T12:00:25.796Z,14.45
2023-05-03T12:01:25.822Z,14.60
2023-05-03T12:02:26.016Z,14.59
2023-05-03T12:03:30.810Z,14.44
2023-05-03T12:04:26.005Z,14.51
2023-05-03T12:05:25.874Z,14.63
2023-05-03T12:06:26.523Z,14.88
2023-05-03T12:07:26.944Z,15.03
2023-05-03T12:08:26.656Z,15.00
2023-05-03T12:09:27.040Z,15.18
2023-05-03T12:10:26.710Z,15.07
2023-05-03T12:11:27.236Z,15.19
2023-05-03T12:12:30.239Z,15.18
2023-05-03T12:13:26.015Z,15.22
2023-05-03T12:14:25.727Z,15.44
2023-05-03T12:15:26.937Z,15.52
2023-05-03T12:16:25.684Z,15.35
2023-05-03T12:17:27.963Z,15.19
2023-05-03T12:18:25.816Z,15.03
2023-05-03T12:19:25.866Z,14.99
2023-05-03T12:21:26.064Z,14.92
2023-05-03T12:21:30.054Z,14.62
2023-05-03T12:22:26.945Z,14.73
2023-05-03T12:23:26.693Z,14.78
2023-05-03T12:24:28.098Z,14.81
2023-05-03T12:25:27.292Z,14.94
2023-05-03T12:26:26.055Z,15.00
2023-05-03T12:27:28.039Z,15.02
2023-05-03T12:28:25.723Z,15.21
2023-05-03T12:29:25.660Z,15.40
2023-05-03T12:30:27.569Z,15.61
2023-05-03T12:31:28.913Z,15.77
2023-05-03T12:32:25.616Z,16.02
2023-05-03T12:33:28.169Z,16.17
2023-05-03T12:36:26.207Z,15.35
2023-05-03T12:37:27.651Z,15.31
2023-05-03T12:38:25.741Z,15.27
2023-05-03T12:39:27.445Z,15.25
2023-05-03T12:42:27.272Z,15.17
2023-05-03T12:43:25.483Z,15.22
2023-05-03T12:44:28.854Z,15.04
2023-05-03T12:45:28.265Z,15.06
2023-05-03T12:46:34.515Z,14.89
2023-05-03T12:47:28.782Z,14.81
2023-05-03T12:48:25.661Z,14.86
2023-05-03T12:49:25.510Z,14.91
2023-05-03T12:50:25.719Z,14.88
2023-05-03T12:53:26.147Z,14.85
2023-05-03T12:54:27.066Z,14.99
2023-05-03T12:55:26.067Z,15.07
2023-05-03T12:56:25.925Z,15.03
2023-05-03T12:57:28.236Z,14.91
2023-05-03T12:58:49.854Z,15.00
2023-05-03T12:59:40.476Z,14.73
2023-05-03T13:00:26.048Z,14.65
2023-05-03T13:03:32.001Z,15.03
2023-05-03T13:04:51.946Z,15.06
2023-05-03T13:05:35.126Z,15.17
2023-05-03T13:06:25.537Z,15.00
2023-05-03T13:07:28.445Z,15.09
2023-05-03T13:08:33.087Z,14.97
2023-05-03T13:09:37.202Z,15.02
2023-05-03T13:10:25.256Z,14.99
2023-05-03T13:11:25.405Z,14.94
2023-05-03T13:12:25.237Z,15.10
2023-05-03T13:13:25.242Z,15.02
2023-05-03T13:14:25.202Z,15.02
2023-05-03T13:15:25.254Z,15.04
2023-05-03T13:16:25.274Z,15.07